Namao, Canada
Current Conditions -  °F | °C
As of 10:00 AM on Sunday 23 Nov 2014 (Local Time) from CYED Reporting Station
Clear Clear  
Wind Chill: 16°   Ceiling: Unl
Heat Index: 16°   Visibility: 9mi
Dew Point: 12°   Wind: 3mph
Humidity: 86%   Direction: 200°SSW
Pressure: 29.75"   Gusts: NA
Location:  53.72°N, 113.48°W
Report Text: CYED 231700Z AUTO 20003KT 9SM CLR M09/M11 A2975 RMK SLP118
Loading
Personal Weather Stations






























Interactive Weather Map New forecast layout! Learn more

10-Day Weather Forecast

Advertisements
Track Severe Weather on mobile